createdAt,value
2023-07-21T00:01:39.596Z,96880.91
2023-07-21T00:04:09.555Z,96866.72
2023-07-21T00:06:39.360Z,96859.59
2023-07-21T00:09:09.308Z,96874.53
2023-07-21T00:11:39.566Z,96867.41
2023-07-21T00:14:11.574Z,96865.09
2023-07-21T00:16:41.317Z,96864.16
2023-07-21T00:19:11.014Z,96866.22
2023-07-21T00:21:40.945Z,96868.16
2023-07-21T00:24:12.653Z,96872.84
2023-07-21T00:26:42.872Z,96876.88
2023-07-21T00:29:12.619Z,96864.94
2023-07-21T00:31:48.046Z,96870.09
2023-07-21T00:34:17.717Z,96861.75
2023-07-21T00:36:48.170Z,96864.88
2023-07-21T00:39:18.036Z,96861.69
2023-07-21T00:41:47.772Z,96871.78
2023-07-21T00:44:17.383Z,96872.91
2023-07-21T00:46:48.264Z,96833.81
2023-07-21T00:49:20.896Z,96837.06
2023-07-21T00:51:51.340Z,96860.44
2023-07-21T00:54:21.327Z,96861.53
2023-07-21T00:56:51.003Z,96839.75
2023-07-21T00:59:21.156Z,96858.88
2023-07-21T01:01:51.096Z,96854.94
2023-07-21T01:04:21.152Z,96865.56
2023-07-21T01:06:50.857Z,96854.50
2023-07-21T01:09:23.572Z,96860.47
2023-07-21T01:11:53.387Z,96857.22
2023-07-21T01:14:23.156Z,96843.75
2023-07-21T01:16:52.954Z,96834.88
2023-07-21T01:19:24.301Z,96813.50
2023-07-21T01:21:59.352Z,96849.13
2023-07-21T01:24:52.844Z,96844.25
2023-07-21T01:27:24.204Z,96842.00
2023-07-21T01:29:57.859Z,96819.59
2023-07-21T01:32:29.368Z,96837.75
2023-07-21T01:35:00.422Z,96813.03
2023-07-21T01:37:30.372Z,96842.25
2023-07-21T01:40:00.892Z,96836.88
2023-07-21T01:42:32.105Z,96807.69
2023-07-21T01:45:03.570Z,96846.28
2023-07-21T01:47:34.171Z,96843.34
2023-07-21T01:50:04.949Z,96848.50
2023-07-21T01:52:36.396Z,96846.13
2023-07-21T01:55:18.845Z,96838.53
2023-07-21T01:57:55.478Z,96830.16
2023-07-21T02:00:26.872Z,96799.66
2023-07-21T02:02:56.842Z,96807.22
2023-07-21T02:05:28.696Z,96834.06
2023-07-21T02:07:59.337Z,96834.13
2023-07-21T02:10:29.026Z,96808.06
2023-07-21T02:13:07.976Z,96820.72
2023-07-21T02:15:37.779Z,96831.75
2023-07-21T02:18:07.619Z,96843.50
2023-07-21T02:20:37.976Z,96835.72
2023-07-21T02:23:07.718Z,96825.06
2023-07-21T02:25:37.436Z,96826.34
2023-07-21T02:28:07.192Z,96824.13
2023-07-21T02:30:36.817Z,96818.63
2023-07-21T02:33:06.906Z,96823.38
2023-07-21T02:35:36.578Z,96820.22
2023-07-21T02:38:06.596Z,96808.47
2023-07-21T02:40:36.267Z,96793.88
2023-07-21T02:43:05.977Z,96802.09
2023-07-21T02:45:35.611Z,96800.50
2023-07-21T02:48:05.457Z,96806.81
2023-07-21T02:56:53.057Z,96804.50
2023-07-21T02:59:28.122Z,96792.22
2023-07-21T03:02:00.439Z,96802.91
2023-07-21T03:04:44.010Z,96755.16
2023-07-21T03:07:16.087Z,96804.06
2023-07-21T03:09:51.245Z,96798.19
2023-07-21T03:12:25.368Z,96796.22
2023-07-21T03:15:18.551Z,96803.69
2023-07-21T03:18:09.778Z,96797.38
2023-07-21T03:21:01.595Z,96796.22
2023-07-21T03:23:31.411Z,96797.44
2023-07-21T03:26:01.187Z,96803.03
2023-07-21T03:28:35.261Z,96783.25
2023-07-21T03:31:05.676Z,96799.03
2023-07-21T03:34:07.856Z,96782.91
2023-07-21T03:36:39.027Z,96788.88
2023-07-21T03:39:08.847Z,96777.53
2023-07-21T03:41:38.552Z,96764.53
2023-07-21T03:44:11.145Z,96766.06
2023-07-21T03:46:44.204Z,96756.63
2023-07-21T03:49:32.708Z,96761.03
2023-07-21T03:52:08.810Z,96764.91
2023-07-21T03:54:38.839Z,96774.31
2023-07-21T03:57:08.731Z,96777.91
2023-07-21T03:59:38.769Z,96774.03
2023-07-21T04:02:09.874Z,96767.78
2023-07-21T04:04:39.781Z,96776.53
2023-07-21T04:07:09.486Z,96774.22
2023-07-21T04:09:39.955Z,96763.91
2023-07-21T04:12:10.260Z,96772.69
2023-07-21T04:14:40.146Z,96776.63
2023-07-21T04:17:09.824Z,96768.66
2023-07-21T04:19:39.525Z,96753.75
2023-07-21T04:22:10.258Z,96756.63
2023-07-21T04:24:39.920Z,96760.16
2023-07-21T04:27:09.831Z,96773.53
2023-07-21T04:29:40.332Z,96775.22
2023-07-21T04:32:10.124Z,96777.66
2023-07-21T04:34:39.864Z,96791.16
2023-07-21T04:37:11.214Z,96775.44
2023-07-21T04:39:43.829Z,96786.06
2023-07-21T04:42:14.190Z,96756.06
2023-07-21T04:44:46.193Z,96785.34
2023-07-21T04:47:16.198Z,96791.38
2023-07-21T04:49:58.795Z,96784.38
2023-07-21T04:52:29.327Z,96783.63
2023-07-21T04:54:59.092Z,96778.47
2023-07-21T04:57:29.670Z,96762.34
2023-07-21T05:00:00.531Z,96772.69
2023-07-21T05:02:30.953Z,96776.63
2023-07-21T05:05:02.440Z,96762.38
2023-07-21T05:07:33.892Z,96767.06
2023-07-21T05:10:05.647Z,96758.44
2023-07-21T05:12:35.749Z,96764.78
2023-07-21T05:15:31.692Z,96781.47
2023-07-21T05:18:17.039Z,96771.09
2023-07-21T05:21:05.269Z,96760.84
2023-07-21T05:24:04.272Z,96765.63
2023-07-21T05:26:37.466Z,96762.53
2023-07-21T05:29:17.304Z,96762.53
2023-07-21T05:31:49.136Z,96770.84
2023-07-21T05:34:28.756Z,96780.06
2023-07-21T05:36:59.289Z,96772.38
2023-07-21T05:39:31.323Z,96779.91
2023-07-21T05:44:55.590Z,96772.13
2023-07-21T05:47:25.660Z,96779.28
2023-07-21T05:50:02.326Z,96786.81
2023-07-21T05:52:35.028Z,96770.34
2023-07-21T05:55:05.369Z,96733.31
2023-07-21T05:57:36.560Z,96780.78
2023-07-21T06:00:07.580Z,96775.69
2023-07-21T06:02:43.000Z,96790.81
2023-07-21T06:05:14.371Z,96789.69
2023-07-21T06:07:58.577Z,96796.41
2023-07-21T06:10:37.537Z,96789.25
2023-07-21T06:13:31.116Z,96800.34
2023-07-21T06:16:27.935Z,96809.91
2023-07-21T06:18:57.869Z,96818.22
2023-07-21T06:21:27.795Z,96827.72
2023-07-21T06:23:57.897Z,96829.66
2023-07-21T06:26:28.282Z,96808.75
2023-07-21T06:28:58.287Z,96841.66
2023-07-21T06:31:29.101Z,96829.84
2023-07-21T06:34:13.221Z,96845.72
2023-07-21T06:37:01.153Z,96840.97
2023-07-21T06:39:49.571Z,96813.31
2023-07-21T06:42:36.006Z,96840.56
2023-07-21T06:45:35.057Z,96818.78
2023-07-21T06:48:34.215Z,96832.25
2023-07-21T06:51:13.376Z,96810.94
2023-07-21T06:53:43.519Z,96811.44
2023-07-21T06:56:14.754Z,96807.84
2023-07-21T06:58:45.922Z,96800.72
2023-07-21T07:01:15.704Z,96798.00
2023-07-21T07:03:48.180Z,96772.28
2023-07-21T07:06:18.832Z,96803.22
2023-07-21T07:08:48.445Z,96781.06
2023-07-21T07:11:18.925Z,96743.16
2023-07-21T07:13:48.879Z,96780.00
2023-07-21T07:16:18.556Z,96767.81
2023-07-21T07:18:48.321Z,96754.41
2023-07-21T07:21:19.090Z,96752.50
2023-07-21T07:23:51.344Z,96732.31
2023-07-21T07:26:26.478Z,96707.38
2023-07-21T07:29:00.743Z,96707.81
2023-07-21T07:31:32.090Z,96693.59
2023-07-21T07:34:02.791Z,96684.88
2023-07-21T07:36:33.394Z,96669.88
2023-07-21T07:41:57.755Z,96682.19
2023-07-21T07:44:28.341Z,96673.88
2023-07-21T07:47:01.814Z,96673.13
2023-07-21T08:10:59.194Z,96656.06
2023-07-21T08:13:43.190Z,96652.78
2023-07-21T08:16:26.496Z,96630.91
2023-07-21T08:19:04.165Z,96627.28
2023-07-21T08:21:35.265Z,96629.63
2023-07-21T08:24:14.209Z,96637.13
2023-07-21T08:26:45.658Z,96637.09
2023-07-21T08:29:17.855Z,96626.75
2023-07-21T08:31:50.141Z,96630.72
2023-07-21T08:34:22.565Z,96631.13
2023-07-21T08:36:55.882Z,96620.34
2023-07-21T08:39:26.656Z,96635.41
2023-07-21T08:41:58.270Z,96618.66
2023-07-21T08:44:29.244Z,96621.00
2023-07-21T08:46:59.525Z,96623.34
2023-07-21T08:49:30.642Z,96624.94
2023-07-21T08:52:01.281Z,96620.97
2023-07-21T08:54:31.311Z,96612.97
2023-07-21T08:57:00.998Z,96633.66
2023-07-21T08:59:30.626Z,96634.91
2023-07-21T09:02:00.490Z,96637.25
2023-07-21T09:04:30.108Z,96641.59
2023-07-21T09:07:00.725Z,96650.38
2023-07-21T09:09:35.054Z,96617.38
2023-07-21T09:12:13.081Z,96645.63
2023-07-21T09:14:46.939Z,96647.97
2023-07-21T09:17:17.471Z,96665.50
2023-07-21T09:19:48.033Z,96671.22
2023-07-21T09:22:17.715Z,96653.81
2023-07-21T09:24:54.379Z,96659.38
2023-07-21T09:27:24.094Z,96638.75
2023-07-21T09:30:02.459Z,96661.34
2023-07-21T09:32:32.254Z,96683.31
2023-07-21T09:35:03.439Z,96682.47
2023-07-21T09:37:34.485Z,96687.31
2023-07-21T09:40:06.439Z,96688.09
2023-07-21T09:42:36.220Z,96702.00
2023-07-21T09:45:06.123Z,96698.41
2023-07-21T09:47:36.088Z,96700.78
2023-07-21T09:50:05.803Z,96681.72
2023-07-21T09:52:41.235Z,96704.75
2023-07-21T09:55:12.252Z,96704.75
2023-07-21T09:57:44.928Z,96701.19
2023-07-21T10:00:17.037Z,96713.47
2023-07-21T10:02:50.788Z,96723.81
2023-07-21T10:05:21.330Z,96719.41
2023-07-21T10:07:55.237Z,96714.66
2023-07-21T10:10:25.254Z,96709.88
2023-07-21T10:12:56.053Z,96693.59
2023-07-21T10:15:32.538Z,96700.75
2023-07-21T10:18:03.837Z,96697.59
2023-07-21T10:21:00.259Z,96680.06
2023-07-21T10:23:35.549Z,96688.78
2023-07-21T10:26:08.969Z,96677.69
2023-07-21T10:28:43.887Z,96665.72
2023-07-21T10:31:26.631Z,96661.34
2023-07-21T10:34:07.388Z,96662.53
2023-07-21T10:36:47.817Z,96655.31
2023-07-21T10:39:21.044Z,96655.31
2023-07-21T10:41:51.864Z,96657.69
2023-07-21T10:44:22.226Z,96654.41
2023-07-21T10:46:53.235Z,96657.97
2023-07-21T10:49:23.960Z,96637.69
2023-07-21T10:51:54.065Z,96643.19
2023-07-21T10:54:24.142Z,96662.22
2023-07-21T10:56:54.555Z,96649.53
2023-07-21T10:59:25.965Z,96676.59
2023-07-21T11:01:57.841Z,96663.81
2023-07-21T11:04:27.918Z,96658.22
2023-07-21T11:06:58.632Z,96656.59
2023-07-21T11:09:28.958Z,96663.66
2023-07-21T11:11:59.438Z,96647.31
2023-07-21T11:14:29.894Z,96669.22
2023-07-21T11:17:06.979Z,96670.81
2023-07-21T11:19:37.981Z,96669.16
2023-07-21T11:22:08.527Z,96671.13
2023-07-21T11:24:38.530Z,96667.53
2023-07-21T11:27:13.715Z,96659.50
2023-07-21T11:29:45.679Z,96631.88
2023-07-21T11:32:21.711Z,96625.88
2023-07-21T11:34:58.243Z,96607.84
2023-07-21T11:37:28.362Z,96609.72
2023-07-21T11:39:59.783Z,96601.25
2023-07-21T11:42:29.980Z,96594.38
2023-07-21T11:44:59.606Z,96583.84
2023-07-21T11:47:30.349Z,96559.03
2023-07-21T11:50:00.563Z,96567.72
2023-07-21T11:52:32.948Z,96583.66
2023-07-21T11:55:04.420Z,96587.13
2023-07-21T11:57:35.417Z,96581.50
2023-07-21T12:00:13.009Z,96579.34
2023-07-21T12:02:43.967Z,96588.06
2023-07-21T12:05:15.065Z,96572.06
2023-07-21T12:07:45.484Z,96575.28
2023-07-21T12:10:15.233Z,96563.22
2023-07-21T12:12:44.927Z,96568.00
2023-07-21T12:15:15.334Z,96570.38
2023-07-21T12:17:45.085Z,96563.94
2023-07-21T12:20:15.383Z,96579.75
2023-07-21T12:22:45.328Z,96588.50
2023-07-21T12:25:15.011Z,96588.31
2023-07-21T12:27:45.496Z,96585.78
2023-07-21T12:30:15.463Z,96600.72
2023-07-21T12:32:45.930Z,96608.94
2023-07-21T12:35:15.880Z,96609.09
2023-07-21T12:37:46.125Z,96612.47
2023-07-21T12:40:16.931Z,96591.84
2023-07-21T12:42:46.584Z,96594.50
2023-07-21T12:45:16.352Z,96592.13
2023-07-21T12:47:46.106Z,96572.94
2023-07-21T12:50:15.884Z,96571.59
2023-07-21T12:52:45.554Z,96573.66
2023-07-21T12:55:15.229Z,96580.59
2023-07-21T12:57:44.962Z,96567.72
2023-07-21T13:00:14.988Z,96580.34
2023-07-21T13:02:44.889Z,96580.41
2023-07-21T13:05:15.096Z,96587.50
2023-07-21T13:07:44.815Z,96585.97
2023-07-21T13:13:17.447Z,96575.16
2023-07-21T13:15:47.789Z,96574.84
2023-07-21T13:18:17.626Z,96578.22
2023-07-21T13:20:47.460Z,96574.53
2023-07-21T13:23:22.073Z,96570.94
2023-07-21T13:25:52.667Z,96560.59
2023-07-21T13:28:22.433Z,96566.91
2023-07-21T13:30:52.112Z,96544.78
2023-07-21T13:33:21.875Z,96542.31
2023-07-21T13:35:53.185Z,96541.75
2023-07-21T13:38:22.906Z,96552.41
2023-07-21T13:40:52.654Z,96546.00
2023-07-21T13:43:22.340Z,96539.22
2023-07-21T13:45:52.064Z,96514.47
2023-07-21T13:48:21.983Z,96532.88
2023-07-21T13:50:51.739Z,96526.47
2023-07-21T13:53:21.482Z,96535.03
2023-07-21T13:55:51.277Z,96535.47
2023-07-21T13:58:21.144Z,96536.78
2023-07-21T14:00:51.375Z,96544.09
2023-07-21T14:03:21.874Z,96542.94
2023-07-21T14:05:51.764Z,96538.03
2023-07-21T14:08:21.460Z,96518.94
2023-07-21T14:10:51.479Z,96505.34
2023-07-21T14:13:21.455Z,96516.47
2023-07-21T14:15:51.106Z,96496.50
2023-07-21T14:18:24.069Z,96497.38
2023-07-21T14:20:54.074Z,96492.22
2023-07-21T14:23:23.865Z,96489.84
2023-07-21T14:25:53.658Z,96478.63
2023-07-21T14:28:23.324Z,96492.28
2023-07-21T14:30:53.049Z,96485.13
2023-07-21T14:33:22.687Z,96476.22
2023-07-21T14:35:52.295Z,96472.63
2023-07-21T14:38:22.683Z,96482.94
2023-07-21T14:40:53.014Z,96476.34
2023-07-21T14:43:22.704Z,96464.97
2023-07-21T14:45:55.132Z,96470.25
2023-07-21T14:48:25.148Z,96476.56
2023-07-21T14:50:54.817Z,96489.06
2023-07-21T14:53:24.470Z,96479.78
2023-07-21T14:55:54.113Z,96471.56
2023-07-21T14:58:23.759Z,96466.66
2023-07-21T15:00:53.433Z,96454.94
2023-07-21T15:03:23.144Z,96450.13
2023-07-21T15:05:53.311Z,96440.59
2023-07-21T15:08:23.337Z,96441.56
2023-07-21T15:10:53.103Z,96438.47
2023-07-21T15:13:22.745Z,96458.56
2023-07-21T15:15:52.643Z,96486.38
2023-07-21T15:18:22.582Z,96466.19
2023-07-21T15:20:53.308Z,96460.47
2023-07-21T15:23:23.615Z,96433.38
2023-07-21T15:25:53.737Z,96462.16
2023-07-21T15:28:23.514Z,96466.97
2023-07-21T15:30:53.305Z,96478.16
2023-07-21T15:33:22.959Z,96472.63
2023-07-21T15:35:52.636Z,96484.28
2023-07-21T15:38:22.347Z,96492.66
2023-07-21T15:40:51.962Z,96486.97
2023-07-21T15:43:21.815Z,96493.47
2023-07-21T15:45:51.463Z,96501.78
2023-07-21T15:48:21.193Z,96494.00
2023-07-21T15:50:50.989Z,96500.03
2023-07-21T15:53:20.631Z,96508.63
2023-07-21T15:55:51.475Z,96510.56
2023-07-21T15:58:22.494Z,96515.16
2023-07-21T16:00:59.946Z,96521.28
2023-07-21T16:03:30.066Z,96505.19
2023-07-21T16:06:00.359Z,96511.91
2023-07-21T16:08:30.117Z,96518.53
2023-07-21T16:11:02.164Z,96515.53
2023-07-21T16:13:32.887Z,96505.72
2023-07-21T16:16:07.337Z,96512.50
2023-07-21T16:18:37.319Z,96506.75
2023-07-21T16:21:07.055Z,96506.97
2023-07-21T16:23:36.758Z,96486.59
2023-07-21T16:26:14.543Z,96496.25
2023-07-21T16:28:44.549Z,96492.38
2023-07-21T16:31:20.268Z,96485.63
2023-07-21T16:33:53.937Z,96512.78
2023-07-21T16:36:23.960Z,96497.47
2023-07-21T16:38:53.772Z,96506.09
2023-07-21T16:41:23.624Z,96509.59
2023-07-21T16:43:53.598Z,96515.00
2023-07-21T16:46:23.500Z,96497.69
2023-07-21T16:48:53.303Z,96494.16
2023-07-21T16:51:23.067Z,96502.28
2023-07-21T16:53:52.813Z,96506.25
2023-07-21T16:56:22.530Z,96491.28
2023-07-21T16:58:52.619Z,96505.28
2023-07-21T17:01:23.065Z,96504.91
2023-07-21T17:03:52.955Z,96514.19
2023-07-21T17:06:24.191Z,96508.34
2023-07-21T17:08:53.843Z,96510.44
2023-07-21T17:11:23.795Z,96506.50
2023-07-21T17:14:07.968Z,96518.66
2023-07-21T17:16:53.689Z,96517.63
2023-07-21T17:19:39.383Z,96523.13
2023-07-21T17:22:24.918Z,96527.25
2023-07-21T17:25:10.691Z,96526.69
2023-07-21T17:27:48.686Z,96527.34
2023-07-21T17:30:18.395Z,96536.25
2023-07-21T17:32:48.088Z,96559.03
2023-07-21T17:35:17.833Z,96554.25
2023-07-21T17:37:47.719Z,96566.88
2023-07-21T17:40:17.701Z,96566.22
2023-07-21T17:42:47.757Z,96562.34
2023-07-21T17:45:19.486Z,96566.09
2023-07-21T17:47:49.205Z,96562.28
2023-07-21T17:50:18.857Z,96548.03
2023-07-21T17:52:48.674Z,96577.72
2023-07-21T17:55:18.762Z,96591.94
2023-07-21T17:57:48.800Z,96570.94
2023-07-21T18:00:18.863Z,96587.22
2023-07-21T18:02:48.630Z,96590.03
2023-07-21T18:05:18.334Z,96585.31
2023-07-21T18:07:48.094Z,96597.91
2023-07-21T18:10:17.794Z,96590.97
2023-07-21T18:12:47.444Z,96603.03
2023-07-21T18:15:17.125Z,96592.53
2023-07-21T18:17:47.252Z,96596.91
2023-07-21T18:20:17.116Z,96592.56
2023-07-21T18:22:47.303Z,96601.88
2023-07-21T18:25:18.179Z,96598.44
2023-07-21T18:27:48.599Z,96592.97
2023-07-21T18:30:18.670Z,96607.38
2023-07-21T18:32:48.438Z,96622.22
2023-07-21T18:35:18.214Z,96605.56
2023-07-21T18:37:49.054Z,96605.66
2023-07-21T18:40:20.143Z,96616.47
2023-07-21T18:42:52.335Z,96600.28
2023-07-21T18:45:22.841Z,96612.66
2023-07-21T18:47:53.398Z,96617.94
2023-07-21T18:50:24.080Z,96621.25
2023-07-21T18:52:54.569Z,96623.75
2023-07-21T18:55:25.795Z,96640.91
2023-07-21T18:57:57.759Z,96642.94
2023-07-21T19:00:27.583Z,96636.66
2023-07-21T19:02:57.603Z,96621.66
2023-07-21T19:05:27.402Z,96642.41
2023-07-21T19:07:57.951Z,96637.69
2023-07-21T19:10:27.964Z,96658.41
2023-07-21T19:12:57.969Z,96654.50
2023-07-21T19:15:27.709Z,96640.22
2023-07-21T19:17:57.799Z,96658.56
2023-07-21T19:20:27.679Z,96658.56
2023-07-21T19:22:58.213Z,96659.00
2023-07-21T19:28:31.077Z,96656.69
2023-07-21T19:31:01.122Z,96660.28
2023-07-21T19:37:10.526Z,96664.31
2023-07-21T19:39:40.189Z,96668.31
2023-07-21T19:42:10.794Z,96674.72
2023-07-21T19:44:41.719Z,96680.28
2023-07-21T19:47:11.513Z,96678.72
2023-07-21T19:49:41.827Z,96682.69
2023-07-21T19:52:11.463Z,96685.84
2023-07-21T19:54:42.337Z,96688.25
2023-07-21T19:57:11.978Z,96681.88
2023-07-21T19:59:41.759Z,96676.75
2023-07-21T20:02:11.525Z,96696.97
2023-07-21T20:04:41.296Z,96713.25
2023-07-21T20:07:11.022Z,96694.19
2023-07-21T20:09:40.679Z,96726.34
2023-07-21T20:12:10.589Z,96729.09
2023-07-21T20:14:40.506Z,96727.94
2023-07-21T20:17:10.332Z,96741.00
2023-07-21T20:19:40.004Z,96741.00
2023-07-21T20:22:10.228Z,96742.97
2023-07-21T20:24:40.087Z,96752.84
2023-07-21T20:27:09.901Z,96760.38
2023-07-21T20:29:39.511Z,96767.47
2023-07-21T20:32:09.345Z,96784.88
2023-07-21T20:34:39.322Z,96776.94
2023-07-21T20:37:09.910Z,96784.09
2023-07-21T20:39:39.898Z,96766.22
2023-07-21T20:42:10.347Z,96786.03
2023-07-21T20:44:40.015Z,96794.78
2023-07-21T20:47:09.933Z,96799.84
2023-07-21T20:49:40.139Z,96784.97
2023-07-21T20:52:10.087Z,96802.91
2023-07-21T20:54:39.710Z,96821.56
2023-07-21T20:57:10.364Z,96839.41
2023-07-21T20:59:45.192Z,96844.19
2023-07-21T21:02:17.957Z,96831.13
2023-07-21T21:04:47.611Z,96835.91
2023-07-21T21:07:17.408Z,96839.06
2023-07-21T21:09:47.175Z,96849.81
2023-07-21T21:12:17.518Z,96845.47
2023-07-21T21:14:47.166Z,96871.28
2023-07-21T21:17:16.919Z,96856.59
2023-07-21T21:19:46.617Z,96863.75
2023-07-21T21:22:16.305Z,96841.53
2023-07-21T21:24:54.093Z,96853.84
2023-07-21T21:27:23.919Z,96854.22
2023-07-21T21:29:53.567Z,96868.53
2023-07-21T21:32:23.285Z,96878.84
2023-07-21T21:34:53.060Z,96872.09
2023-07-21T21:37:22.825Z,96841.53
2023-07-21T21:39:52.522Z,96877.28
2023-07-21T21:42:22.289Z,96889.19
2023-07-21T21:44:51.894Z,96857.41
2023-07-21T21:47:21.810Z,96860.97
2023-07-21T21:49:51.464Z,96836.75
2023-07-21T21:52:21.271Z,96884.03
2023-07-21T21:54:51.020Z,96871.69
2023-07-21T21:57:20.764Z,96867.75
2023-07-21T21:59:50.462Z,96868.53
2023-07-21T22:02:20.118Z,96875.66
2023-07-21T22:04:49.861Z,96883.63
2023-07-21T22:07:19.635Z,96888.78
2023-07-21T22:09:49.382Z,96888.78
2023-07-21T22:12:19.136Z,96902.28
2023-07-21T22:14:56.621Z,96888.38
2023-07-21T22:17:27.394Z,96902.66
2023-07-21T22:20:09.402Z,96896.31
2023-07-21T22:22:41.111Z,96909.41
2023-07-21T22:25:10.847Z,96912.56
2023-07-21T22:27:41.255Z,96911.75
2023-07-21T22:30:11.275Z,96914.16
2023-07-21T22:32:41.101Z,96911.38
2023-07-21T22:35:11.485Z,96920.88
2023-07-21T22:37:41.144Z,96906.56
2023-07-21T22:40:11.133Z,96912.94
2023-07-21T22:42:40.835Z,96904.97
2023-07-21T22:45:10.798Z,96917.31
2023-07-21T22:53:40.826Z,96916.47
2023-07-21T22:56:10.877Z,96922.44
2023-07-21T22:58:40.638Z,96926.78
2023-07-21T23:01:10.912Z,96931.53
2023-07-21T23:03:41.135Z,96935.09
2023-07-21T23:06:10.786Z,96940.66
2023-07-21T23:08:40.648Z,96952.16
2023-07-21T23:11:10.276Z,96952.53
2023-07-21T23:13:39.897Z,96949.00
2023-07-21T23:16:09.917Z,96973.59
2023-07-21T23:18:39.604Z,96951.00
2023-07-21T23:21:09.349Z,96965.31
2023-07-21T23:23:38.962Z,96961.31
2023-07-21T23:26:08.816Z,96970.06
2023-07-21T23:28:38.449Z,96962.91
2023-07-21T23:31:09.407Z,96961.31
2023-07-21T23:33:39.194Z,96977.59
2023-07-21T23:36:09.670Z,96966.91
2023-07-21T23:38:39.402Z,96988.34
2023-07-21T23:41:09.942Z,96977.97
2023-07-21T23:43:39.630Z,96989.09
2023-07-21T23:46:09.376Z,96981.97
2023-07-21T23:48:39.234Z,96969.66
2023-07-21T23:51:09.131Z,96985.13
2023-07-21T23:53:38.838Z,96987.53
2023-07-21T23:56:08.641Z,96997.84
2023-07-21T23:58:38.262Z,96987.53
